createdAt,value
2019-04-26T00:02:22.886Z,100361.73
2019-04-26T00:04:53.445Z,100353.38
2019-04-26T00:07:23.873Z,100367.81
2019-04-26T00:09:57.486Z,100368.58
2019-04-26T00:12:43.619Z,100368.27
2019-04-26T00:15:16.398Z,100360.75
2019-04-26T00:17:50.462Z,100365.56
2019-04-26T00:20:19.899Z,100353.30
2019-04-26T00:22:51.187Z,100353.02
2019-04-26T00:25:23.438Z,100347.23
2019-04-26T00:27:53.650Z,100349.47
2019-04-26T00:30:23.221Z,100338.75
2019-04-26T00:32:53.053Z,100338.81
2019-04-26T00:35:22.654Z,100339.86
2019-04-26T00:37:52.087Z,100345.32
2019-04-26T00:40:22.468Z,100334.78
2019-04-26T00:42:54.517Z,100343.05
2019-04-26T00:45:26.012Z,100349.27
2019-04-26T00:47:56.082Z,100343.61
2019-04-26T00:50:25.838Z,100341.55
2019-04-26T00:52:56.197Z,100332.89
2019-04-26T00:55:26.374Z,100326.20
2019-04-26T00:57:56.123Z,100317.80
2019-04-26T01:00:26.063Z,100320.26
2019-04-26T01:02:56.942Z,100324.20
2019-04-26T01:05:27.359Z,100328.90
2019-04-26T01:07:57.637Z,100324.07
2019-04-26T01:10:27.204Z,100321.87
2019-04-26T01:12:56.606Z,100330.14
2019-04-26T01:15:26.637Z,100334.16
2019-04-26T01:17:56.263Z,100334.98
2019-04-26T01:20:27.846Z,100336.81
2019-04-26T01:23:00.723Z,100332.64
2019-04-26T01:25:51.116Z,100330.02
2019-04-26T01:28:29.518Z,100330.41
2019-04-26T01:31:02.287Z,100318.48
2019-04-26T01:33:34.333Z,100306.33
2019-04-26T01:36:12.783Z,100311.41
2019-04-26T01:38:35.785Z,100314.13
2019-04-26T01:41:07.985Z,100313.45
2019-04-26T01:43:56.922Z,100316.33
2019-04-26T01:46:33.614Z,100309.84
2019-04-26T01:49:12.584Z,100310.99
2019-04-26T01:51:47.682Z,100313.52
2019-04-26T01:54:20.145Z,100314.44
2019-04-26T01:56:52.550Z,100313.76
2019-04-26T01:59:23.594Z,100306.96
2019-04-26T02:02:04.755Z,100306.91
2019-04-26T02:04:35.979Z,100297.12
2019-04-26T02:07:05.896Z,100299.16
2019-04-26T02:09:35.479Z,100311.72
2019-04-26T02:12:05.437Z,100302.01
2019-04-26T02:14:35.196Z,100295.16
2019-04-26T02:17:04.883Z,100300.42
2019-04-26T02:19:34.734Z,100308.22
2019-04-26T02:22:13.297Z,100309.77
2019-04-26T02:24:44.760Z,100304.68
2019-04-26T02:27:16.354Z,100302.51
2019-04-26T02:29:45.794Z,100300.09
2019-04-26T02:32:15.299Z,100303.66
2019-04-26T02:34:44.966Z,100310.69
2019-04-26T02:37:16.695Z,100306.61
2019-04-26T02:39:49.941Z,100302.44
2019-04-26T02:42:22.410Z,100301.92
2019-04-26T02:45:20.882Z,100305.04
2019-04-26T02:47:57.256Z,100299.78
2019-04-26T02:50:31.136Z,100301.78
2019-04-26T02:53:13.229Z,100299.38
2019-04-26T02:56:12.944Z,100308.81
2019-04-26T02:58:45.419Z,100312.30
2019-04-26T03:01:14.907Z,100320.58
2019-04-26T03:03:45.550Z,100315.63
2019-04-26T03:06:15.410Z,100321.74
2019-04-26T03:08:45.583Z,100337.07
2019-04-26T03:11:18.107Z,100340.48
2019-04-26T03:13:57.855Z,100356.17
2019-04-26T03:16:39.275Z,100350.14
2019-04-26T03:19:13.988Z,100352.95
2019-04-26T03:22:05.873Z,100356.40
2019-04-26T03:25:02.867Z,100350.74
2019-04-26T03:27:40.984Z,100342.78
2019-04-26T03:30:22.386Z,100334.83
2019-04-26T03:32:58.713Z,100341.15
2019-04-26T03:35:43.947Z,100347.10
2019-04-26T03:38:14.565Z,100356.37
2019-04-26T03:40:57.440Z,100347.80
2019-04-26T03:43:36.824Z,100341.47
2019-04-26T03:46:24.194Z,100338.44
2019-04-26T03:49:13.553Z,100349.18
2019-04-26T03:51:51.867Z,100366.39
2019-04-26T03:54:26.946Z,100369.71
2019-04-26T03:57:18.672Z,100353.86
2019-04-26T04:00:10.647Z,100352.67
2019-04-26T04:02:50.230Z,100354.30
2019-04-26T04:05:37.904Z,100351.83
2019-04-26T04:08:10.926Z,100342.64
2019-04-26T04:10:49.201Z,100339.70
2019-04-26T04:13:40.209Z,100347.56
2019-04-26T04:16:29.712Z,100338.71
2019-04-26T04:19:27.243Z,100336.17
2019-04-26T04:22:08.495Z,100346.48
2019-04-26T04:24:53.406Z,100352.18
2019-04-26T04:27:40.133Z,100352.59
2019-04-26T04:30:34.405Z,100360.28
2019-04-26T04:33:12.313Z,100361.89
2019-04-26T04:35:50.456Z,100364.91
2019-04-26T04:38:46.280Z,100374.80
2019-04-26T04:41:26.743Z,100370.69
2019-04-26T04:44:34.282Z,100368.59
2019-04-26T04:47:24.424Z,100370.53
2019-04-26T04:49:59.130Z,100370.27
2019-04-26T04:52:37.626Z,100359.89
2019-04-26T04:55:29.612Z,100371.42
2019-04-26T04:58:10.851Z,100383.13
2019-04-26T05:01:07.367Z,100396.13
2019-04-26T05:03:51.838Z,100396.13
2019-04-26T05:06:38.025Z,100386.75
2019-04-26T05:09:13.180Z,100390.78
2019-04-26T05:12:09.136Z,100402.37
2019-04-26T05:14:52.830Z,100405.22
2019-04-26T05:17:40.357Z,100397.13
2019-04-26T05:20:26.038Z,100405.63
2019-04-26T05:23:04.455Z,100420.58
2019-04-26T05:26:11.665Z,100431.55
2019-04-26T05:29:01.422Z,100436.67
2019-04-26T05:31:42.601Z,100445.22
2019-04-26T05:34:16.736Z,100444.23
2019-04-26T05:37:23.998Z,100457.09
2019-04-26T05:40:11.615Z,100460.01
2019-04-26T05:43:19.114Z,100470.11
2019-04-26T05:46:12.244Z,100468.72
2019-04-26T05:48:49.276Z,100458.77
2019-04-26T05:51:45.551Z,100459.94
2019-04-26T05:54:43.831Z,100456.17
2019-04-26T05:57:20.853Z,100465.71
2019-04-26T06:00:01.138Z,100471.74
2019-04-26T06:02:52.978Z,100476.72
2019-04-26T06:05:27.103Z,100478.81
2019-04-26T06:08:31.199Z,100487.53
2019-04-26T06:11:15.584Z,100489.02
2019-04-26T06:14:07.715Z,100497.59
2019-04-26T06:16:52.131Z,100503.39
2019-04-26T06:19:46.099Z,100500.64
2019-04-26T06:22:33.412Z,100504.87
2019-04-26T06:25:25.782Z,100510.91
2019-04-26T06:28:02.644Z,100505.42
2019-04-26T06:30:50.587Z,100513.47
2019-04-26T06:33:35.081Z,100505.66
2019-04-26T06:36:08.673Z,100504.59
2019-04-26T06:38:57.928Z,100512.64
2019-04-26T06:41:40.707Z,100522.30
2019-04-26T06:44:20.349Z,100526.48
2019-04-26T06:47:19.607Z,100529.80
2019-04-26T06:50:23.442Z,100527.08
2019-04-26T06:53:17.187Z,100535.79
2019-04-26T06:56:05.053Z,100519.54
2019-04-26T06:58:46.839Z,100518.29
2019-04-26T07:01:24.017Z,100515.72
2019-04-26T07:04:08.450Z,100513.47
2019-04-26T07:06:43.659Z,100527.06
2019-04-26T07:09:15.656Z,100529.41
2019-04-26T07:12:11.680Z,100526.10
2019-04-26T07:15:04.069Z,100523.27
2019-04-26T07:17:53.180Z,100511.53
2019-04-26T07:20:28.755Z,100504.22
2019-04-26T07:23:43.794Z,100509.03
2019-04-26T07:26:40.818Z,100503.00
2019-04-26T07:29:29.413Z,100505.89
2019-04-26T07:32:24.862Z,100500.17
2019-04-26T07:35:15.572Z,100508.63
2019-04-26T07:38:12.026Z,100523.95
2019-04-26T07:41:05.148Z,100549.60
2019-04-26T07:44:03.716Z,100572.14
2019-04-26T07:46:42.441Z,100558.34
2019-04-26T07:49:48.322Z,100542.33
2019-04-26T07:52:23.638Z,100525.28
2019-04-26T07:55:26.791Z,100523.52
2019-04-26T07:58:15.540Z,100526.81
2019-04-26T08:00:58.786Z,100544.36
2019-04-26T08:03:43.034Z,100546.59
2019-04-26T08:06:15.583Z,100545.35
2019-04-26T08:08:53.705Z,100552.22
2019-04-26T08:11:28.761Z,100564.50
2019-04-26T08:14:25.141Z,100569.20
2019-04-26T08:17:20.946Z,100574.19
2019-04-26T08:20:06.906Z,100564.38
2019-04-26T08:22:37.935Z,100564.23
2019-04-26T08:25:10.392Z,100573.52
2019-04-26T08:27:44.002Z,100586.34
2019-04-26T08:30:19.054Z,100594.25
2019-04-26T08:32:56.765Z,100590.82
2019-04-26T08:35:29.741Z,100581.69
2019-04-26T08:38:02.371Z,100587.80
2019-04-26T08:40:35.103Z,100601.41
2019-04-26T08:43:27.328Z,100596.58
2019-04-26T08:46:12.576Z,100591.59
2019-04-26T08:48:46.449Z,100588.20
2019-04-26T08:51:20.588Z,100590.25
2019-04-26T08:53:52.916Z,100593.97
2019-04-26T08:56:30.895Z,100581.08
2019-04-26T08:59:03.980Z,100581.27
2019-04-26T09:01:46.930Z,100572.72
2019-04-26T09:04:19.122Z,100582.81
2019-04-26T09:07:05.235Z,100585.36
2019-04-26T09:09:37.909Z,100587.81
2019-04-26T09:12:22.275Z,100592.91
2019-04-26T09:14:44.639Z,100593.08
2019-04-26T09:17:14.208Z,100587.24
2019-04-26T09:19:43.756Z,100591.86
2019-04-26T09:22:27.700Z,100590.64
2019-04-26T09:25:08.898Z,100613.86
2019-04-26T09:27:40.039Z,100610.25
2019-04-26T09:30:33.091Z,100621.38
2019-04-26T09:32:53.391Z,100629.70
2019-04-26T09:35:22.878Z,100640.44
2019-04-26T09:37:52.442Z,100638.36
2019-04-26T09:40:22.876Z,100644.20
2019-04-26T09:42:57.102Z,100648.72
2019-04-26T09:45:30.744Z,100645.52
2019-04-26T09:48:04.684Z,100654.01
2019-04-26T09:50:37.355Z,100648.46
2019-04-26T09:53:09.909Z,100651.58
2019-04-26T09:55:39.360Z,100657.97
2019-04-26T09:58:08.866Z,100653.45
2019-04-26T10:00:38.708Z,100654.41
2019-04-26T10:03:09.539Z,100646.48
2019-04-26T10:05:39.828Z,100652.89
2019-04-26T10:08:13.076Z,100648.92
2019-04-26T10:10:41.427Z,100650.54
2019-04-26T10:13:15.011Z,100652.52
2019-04-26T10:15:48.367Z,100657.89
2019-04-26T10:18:20.386Z,100651.01
2019-04-26T10:20:50.658Z,100655.13
2019-04-26T10:23:20.094Z,100654.56
2019-04-26T10:25:51.994Z,100654.05
2019-04-26T10:28:20.792Z,100660.97
2019-04-26T10:30:50.907Z,100669.77
2019-04-26T10:33:23.337Z,100681.05
2019-04-26T10:35:56.778Z,100683.81
2019-04-26T10:38:25.437Z,100690.81
2019-04-26T10:40:54.982Z,100689.80
2019-04-26T10:43:29.583Z,100695.80
2019-04-26T10:45:59.156Z,100693.67
2019-04-26T10:48:28.599Z,100698.41
2019-04-26T10:50:58.131Z,100703.28
2019-04-26T10:53:42.933Z,100696.43
2019-04-26T10:56:20.241Z,100698.51
2019-04-26T10:58:56.281Z,100700.33
2019-04-26T11:01:25.951Z,100704.82
2019-04-26T11:03:55.501Z,100721.56
2019-04-26T11:06:27.936Z,100713.83
2019-04-26T11:08:56.692Z,100715.70
2019-04-26T11:11:26.285Z,100711.66
2019-04-26T11:13:57.576Z,100710.22
2019-04-26T11:16:27.260Z,100717.58
2019-04-26T11:18:57.143Z,100709.98
2019-04-26T11:21:28.084Z,100708.41
2019-04-26T11:23:58.056Z,100712.09
2019-04-26T11:26:27.463Z,100710.38
2019-04-26T11:29:01.425Z,100707.64
2019-04-26T11:31:31.426Z,100710.13
2019-04-26T11:34:05.322Z,100713.48
2019-04-26T11:36:32.074Z,100724.39
2019-04-26T11:39:05.480Z,100730.20
2019-04-26T11:41:37.516Z,100732.41
2019-04-26T11:44:07.060Z,100744.64
2019-04-26T11:46:44.582Z,100741.11
2019-04-26T11:49:08.305Z,100742.55
2019-04-26T11:51:43.912Z,100744.97
2019-04-26T11:54:13.348Z,100737.45
2019-04-26T11:56:42.952Z,100742.70
2019-04-26T11:59:12.541Z,100733.03
2019-04-26T12:01:44.778Z,100740.84
2019-04-26T12:04:24.884Z,100728.96
2019-04-26T12:07:02.466Z,100728.46
2019-04-26T12:09:42.501Z,100736.84
2019-04-26T12:12:15.778Z,100744.39
2019-04-26T12:14:45.250Z,100748.02
2019-04-26T12:17:15.850Z,100752.88
2019-04-26T12:19:48.228Z,100744.78
2019-04-26T12:22:16.702Z,100756.70
2019-04-26T12:24:46.224Z,100761.33
2019-04-26T12:27:15.861Z,100764.25
2019-04-26T12:29:48.266Z,100772.98
2019-04-26T12:32:18.679Z,100765.16
2019-04-26T12:34:48.273Z,100766.47
2019-04-26T12:37:20.038Z,100758.27
2019-04-26T12:39:48.912Z,100768.95
2019-04-26T12:42:20.053Z,100774.99
2019-04-26T12:44:52.271Z,100778.41
2019-04-26T12:47:23.588Z,100772.98
2019-04-26T12:49:54.564Z,100776.16
2019-04-26T12:52:24.667Z,100785.55
2019-04-26T12:54:54.320Z,100767.46
2019-04-26T12:57:25.985Z,100770.72
2019-04-26T12:59:57.475Z,100773.59
2019-04-26T13:02:28.512Z,100775.32
2019-04-26T13:04:57.945Z,100763.77
2019-04-26T13:07:27.521Z,100769.56
2019-04-26T13:10:17.187Z,100764.61
2019-04-26T13:12:50.050Z,100776.92
2019-04-26T13:15:59.003Z,100769.48
2019-04-26T13:18:29.419Z,100765.25
2019-04-26T13:21:03.120Z,100760.34
2019-04-26T13:23:34.298Z,100760.19
2019-04-26T13:26:07.221Z,100760.69
2019-04-26T13:28:36.890Z,100757.68
2019-04-26T13:31:06.402Z,100759.86
2019-04-26T13:33:39.490Z,100772.13
2019-04-26T13:36:09.003Z,100773.42
2019-04-26T13:38:43.599Z,100773.02
2019-04-26T13:41:16.169Z,100777.62
2019-04-26T13:43:45.655Z,100783.59
2019-04-26T13:46:19.968Z,100786.40
2019-04-26T13:48:53.893Z,100775.17
2019-04-26T13:51:24.988Z,100788.86
2019-04-26T13:53:54.512Z,100787.38
2019-04-26T13:56:25.626Z,100787.83
2019-04-26T13:58:58.304Z,100785.44
2019-04-26T14:01:26.426Z,100793.05
2019-04-26T14:03:55.925Z,100793.03
2019-04-26T14:06:26.460Z,100805.42
2019-04-26T14:08:58.108Z,100802.44
2019-04-26T14:11:29.531Z,100815.87
2019-04-26T14:14:03.596Z,100820.84
2019-04-26T14:16:33.044Z,100835.08
2019-04-26T14:19:04.417Z,100844.01
2019-04-26T14:21:34.884Z,100844.45
2019-04-26T14:24:24.007Z,100852.73
2019-04-26T14:26:56.301Z,100863.01
2019-04-26T14:29:28.522Z,100867.66
2019-04-26T14:32:01.427Z,100866.19
2019-04-26T14:34:36.099Z,100870.78
2019-04-26T14:37:06.681Z,100867.07
2019-04-26T14:39:49.754Z,100862.34
2019-04-26T14:42:07.303Z,100875.91
2019-04-26T14:44:48.958Z,100877.20
2019-04-26T14:47:14.922Z,100888.70
2019-04-26T14:49:42.835Z,100895.27
2019-04-26T14:52:16.207Z,100900.64
2019-04-26T14:54:47.535Z,100902.72
2019-04-26T14:57:24.464Z,100908.29
2019-04-26T15:00:00.572Z,100904.26
2019-04-26T15:02:48.587Z,100897.79
2019-04-26T15:05:22.759Z,100892.11
2019-04-26T15:07:53.829Z,100892.11
2019-04-26T15:10:27.297Z,100905.03
2019-04-26T15:13:14.257Z,100899.11
2019-04-26T15:15:34.675Z,100898.59
2019-04-26T15:18:05.134Z,100891.03
2019-04-26T15:20:34.841Z,100891.03
2019-04-26T15:23:05.932Z,100890.86
2019-04-26T15:25:36.813Z,100895.02
2019-04-26T15:28:10.718Z,100895.02
2019-04-26T15:30:43.206Z,100891.96
2019-04-26T15:33:12.829Z,100905.63
2019-04-26T15:35:42.241Z,100909.86
2019-04-26T15:38:11.908Z,100898.09
2019-04-26T15:40:44.581Z,100905.91
2019-04-26T15:43:28.335Z,100910.07
2019-04-26T15:46:08.111Z,100918.62
2019-04-26T15:48:43.026Z,100916.50
2019-04-26T15:51:14.356Z,100929.28
2019-04-26T15:53:48.855Z,100929.28
2019-04-26T15:56:17.670Z,100941.02
2019-04-26T15:58:48.903Z,100930.53
2019-04-26T16:01:17.548Z,100933.16
2019-04-26T16:03:46.997Z,100927.49
2019-04-26T16:06:16.463Z,100927.49
2019-04-26T16:08:45.980Z,100917.50
2019-04-26T16:11:15.576Z,100906.21
2019-04-26T16:13:51.297Z,100906.21
2019-04-26T16:16:20.639Z,100908.59
2019-04-26T16:18:55.513Z,100918.75
2019-04-26T16:21:22.059Z,100922.92
2019-04-26T16:23:55.174Z,100920.80
2019-04-26T16:26:22.954Z,100922.42
2019-04-26T16:29:06.175Z,100917.68
2019-04-26T16:31:53.454Z,100916.43
2019-04-26T16:34:32.446Z,100917.61
2019-04-26T16:37:03.057Z,100935.97
2019-04-26T16:39:38.921Z,100924.86
2019-04-26T16:42:07.511Z,100924.86
2019-04-26T16:44:37.567Z,100928.78
2019-04-26T16:47:07.064Z,100933.13
2019-04-26T16:49:42.078Z,100945.67
2019-04-26T16:52:07.728Z,100945.67
2019-04-26T16:54:37.741Z,100939.38
2019-04-26T16:57:11.472Z,100930.15
2019-04-26T16:59:48.893Z,100926.61
2019-04-26T17:02:20.928Z,100941.32
2019-04-26T17:04:43.887Z,100938.87
2019-04-26T17:07:13.983Z,100944.25
2019-04-26T17:09:57.659Z,100929.40
2019-04-26T17:12:36.551Z,100915.61
2019-04-26T17:15:07.795Z,100909.06
2019-04-26T17:17:41.153Z,100909.06
2019-04-26T17:20:10.862Z,100919.92
2019-04-26T17:22:58.586Z,100927.84
2019-04-26T17:25:26.611Z,100942.41
2019-04-26T17:27:54.399Z,100946.11
2019-04-26T17:30:25.788Z,100947.64
2019-04-26T17:32:55.447Z,100944.58
2019-04-26T17:35:25.538Z,100930.12
2019-04-26T17:37:57.422Z,100931.83
2019-04-26T17:40:30.162Z,100940.10
2019-04-26T17:42:57.848Z,100940.10
2019-04-26T17:45:27.725Z,100942.72
2019-04-26T17:47:58.757Z,100942.55
2019-04-26T17:50:31.037Z,100942.41
2019-04-26T17:53:00.661Z,100955.94
2019-04-26T17:55:33.351Z,100967.67
2019-04-26T17:58:12.020Z,100967.67
2019-04-26T18:00:46.138Z,100978.67
2019-04-26T18:03:13.205Z,100981.38
2019-04-26T18:05:56.005Z,100982.63
2019-04-26T18:08:33.263Z,101001.70
2019-04-26T18:10:43.013Z,101001.70
2019-04-26T18:13:16.305Z,101005.56
2019-04-26T18:15:48.470Z,101007.26
2019-04-26T18:18:18.290Z,101009.38
2019-04-26T18:21:01.192Z,101002.72
2019-04-26T18:23:30.779Z,100997.86
2019-04-26T18:26:00.284Z,101001.61
2019-04-26T18:28:29.752Z,101009.36
2019-04-26T18:30:59.262Z,101009.36
2019-04-26T18:33:28.738Z,101002.53
2019-04-26T18:35:58.226Z,101002.53
2019-04-26T18:38:27.916Z,100997.38
2019-04-26T18:41:01.031Z,101004.34
2019-04-26T18:43:28.576Z,101001.10
2019-04-26T18:46:03.353Z,101002.63
2019-04-26T18:48:35.479Z,101001.88
2019-04-26T18:51:03.398Z,101001.88
2019-04-26T18:53:39.444Z,101012.40
2019-04-26T18:56:07.730Z,101006.61
2019-04-26T18:58:38.574Z,101006.61
2019-04-26T19:01:10.723Z,101007.42
2019-04-26T19:03:40.178Z,101007.42
2019-04-26T19:06:10.717Z,101005.63
2019-04-26T19:08:47.593Z,101006.72
2019-04-26T19:11:12.940Z,101007.37
2019-04-26T19:14:01.729Z,101007.37
2019-04-26T19:16:36.185Z,101003.23
2019-04-26T19:19:15.376Z,101016.66
2019-04-26T19:21:43.392Z,101020.56
2019-04-26T19:24:19.515Z,101013.16
2019-04-26T19:26:50.031Z,101013.21
2019-04-26T19:29:31.112Z,101013.21
2019-04-26T19:31:56.539Z,101025.53
2019-04-26T19:34:30.260Z,101025.53
2019-04-26T19:36:59.826Z,101039.28
2019-04-26T19:39:35.072Z,101042.77
2019-04-26T19:42:02.485Z,101037.69
2019-04-26T19:44:34.818Z,101034.64
2019-04-26T19:47:06.903Z,101036.38
2019-04-26T19:49:44.029Z,101031.95
2019-04-26T19:52:22.146Z,101032.34
2019-04-26T19:54:53.550Z,101039.88
2019-04-26T19:57:33.408Z,101049.86
2019-04-26T20:00:03.804Z,101048.92
2019-04-26T20:02:38.858Z,101053.08
2019-04-26T20:05:06.570Z,101060.94
2019-04-26T20:07:36.378Z,101060.94
2019-04-26T20:10:06.954Z,101063.22
2019-04-26T20:12:38.233Z,101059.34
2019-04-26T20:15:09.103Z,101083.41
2019-04-26T20:17:38.622Z,101083.59
2019-04-26T20:20:19.024Z,101083.59
2019-04-26T20:22:39.604Z,101085.77
2019-04-26T20:25:11.918Z,101081.94
2019-04-26T20:27:41.660Z,101079.05
2019-04-26T20:30:13.062Z,101077.95
2019-04-26T20:32:47.181Z,101072.79
2019-04-26T20:35:26.785Z,101074.91
2019-04-26T20:37:56.324Z,101067.22
2019-04-26T20:40:25.689Z,101061.11
2019-04-26T20:43:01.613Z,101049.12
2019-04-26T20:45:41.125Z,101038.85
2019-04-26T20:48:06.280Z,101050.92
2019-04-26T20:50:42.982Z,101037.39
2019-04-26T20:53:12.107Z,101034.62
2019-04-26T20:55:42.750Z,101030.13
2019-04-26T20:58:12.430Z,101036.83
2019-04-26T21:00:54.056Z,101025.98
2019-04-26T21:03:23.856Z,101005.05
2019-04-26T21:05:53.069Z,101015.33
2019-04-26T21:08:25.742Z,101021.27
2019-04-26T21:10:56.058Z,101013.80
2019-04-26T21:13:30.736Z,101006.06
2019-04-26T21:15:58.449Z,101002.47
2019-04-26T21:18:26.334Z,100998.09
2019-04-26T21:20:55.928Z,101006.34
2019-04-26T21:23:25.517Z,101000.60
2019-04-26T21:26:02.978Z,100994.48
2019-04-26T21:28:38.119Z,100994.48
2019-04-26T21:31:19.559Z,100986.68
2019-04-26T21:34:12.506Z,100987.25
2019-04-26T21:36:59.377Z,100985.00
2019-04-26T21:39:30.682Z,100992.47
2019-04-26T21:42:04.996Z,100989.92
2019-04-26T21:44:35.527Z,100996.58
2019-04-26T21:47:05.218Z,101005.96
2019-04-26T21:49:37.955Z,101005.83
2019-04-26T21:52:08.392Z,101005.83
2019-04-26T21:54:37.583Z,101023.70
2019-04-26T21:57:07.039Z,101020.33
2019-04-26T21:59:42.025Z,101020.61
2019-04-26T22:02:17.877Z,101032.20
2019-04-26T22:04:43.615Z,101030.67
2019-04-26T22:07:14.571Z,101039.95
2019-04-26T22:09:46.111Z,101043.00
2019-04-26T22:12:16.549Z,101044.52
2019-04-26T22:14:50.729Z,101044.52
2019-04-26T22:17:22.061Z,101045.45
2019-04-26T22:20:12.474Z,101034.17
2019-04-26T22:22:41.493Z,101031.01
2019-04-26T22:25:12.927Z,101032.86
2019-04-26T22:27:43.703Z,101032.86
2019-04-26T22:30:15.119Z,101023.09
2019-04-26T22:32:44.549Z,101023.09
2019-04-26T22:35:20.205Z,101027.11
2019-04-26T22:37:48.053Z,101035.84
2019-04-26T22:40:19.770Z,101035.36
2019-04-26T22:42:50.751Z,101023.63
2019-04-26T22:45:27.717Z,101018.45
2019-04-26T22:48:03.551Z,101016.77
2019-04-26T22:50:33.623Z,101018.89
2019-04-26T22:53:04.338Z,101021.02
2019-04-26T22:55:33.761Z,101024.08
2019-04-26T22:58:04.973Z,101028.05
2019-04-26T23:00:36.109Z,101023.26
2019-04-26T23:03:07.281Z,101028.48
2019-04-26T23:05:39.253Z,101027.28
2019-04-26T23:08:08.984Z,101026.40
2019-04-26T23:10:40.142Z,101020.05
2019-04-26T23:13:27.807Z,101030.09
2019-04-26T23:16:08.291Z,101015.75
2019-04-26T23:18:38.690Z,101012.41
2019-04-26T23:21:12.058Z,101012.55
2019-04-26T23:23:42.757Z,101016.92
2019-04-26T23:26:14.489Z,101018.87
2019-04-26T23:28:44.078Z,101014.13
2019-04-26T23:31:13.898Z,101005.34
2019-04-26T23:33:43.389Z,101000.46
2019-04-26T23:36:13.630Z,101005.25
2019-04-26T23:38:43.902Z,100995.28
2019-04-26T23:41:14.229Z,100998.86
2019-04-26T23:43:43.818Z,100998.48
2019-04-26T23:46:14.658Z,101000.22
2019-04-26T23:48:48.774Z,100994.13
2019-04-26T23:51:15.346Z,100994.98
2019-04-26T23:53:44.885Z,100996.31
2019-04-26T23:56:21.666Z,100993.36
2019-04-26T23:58:47.182Z,100978.06
